Time;durP1;ratioP1;P1;durP2;ratioP2;P2;SDS_P1;SDS_P2;PMS_P1;PMS_P2;Temp;Humidity;BMP_temperature;BMP_pressure;BME280_temperature;BME280_humidity;BME280_pressure;Samples;Min_cycle;Max_cycle;Signal;HPM_P1;HPM_P2
2024/01/13 00:02:01;;;;;;;42.97;24.07;;;-2.30;99.90;;;;;;5060616;28;20473;-79
2024/01/13 00:05:03;;;;;;;42.90;22.33;;;-2.50;99.90;;;;;;5061421;28;20499;-78
2024/01/13 00:08:05;;;;;;;44.53;25.57;;;-2.70;99.90;;;;;;5060837;28;20452;-77
2024/01/13 00:10:57;;;;;;;48.13;25.10;;;-2.60;99.90;;;;;;5063722;28;20445;-77
2024/01/13 00:13:44;;;;;;;47.73;26.20;;;-2.30;99.90;;;;;;5059284;28;20469;-78
2024/01/13 00:16:34;;;;;;;43.00;24.87;;;-2.40;99.90;;;;;;5058830;28;20449;-77
2024/01/13 00:19:39;;;;;;;46.90;23.00;;;-2.40;99.90;;;;;;5059113;28;20527;-77
2024/01/13 00:22:47;;;;;;;45.43;23.20;;;-2.50;99.90;;;;;;5058349;28;20481;-77
2024/01/13 00:25:53;;;;;;;43.73;23.80;;;-2.60;99.90;;;;;;5056044;28;20471;-78
2024/01/13 00:28:36;;;;;;;43.97;23.77;;;-2.50;99.90;;;;;;5049695;28;20449;-78
2024/01/13 00:31:32;;;;;;;40.07;23.20;;;-2.50;99.90;;;;;;5058585;28;20465;-77
2024/01/13 00:34:43;;;;;;;42.70;23.50;;;-2.50;99.90;;;;;;5057004;28;20449;-77
2024/01/13 00:37:37;;;;;;;50.33;27.27;;;-2.40;99.90;;;;;;5057167;28;20540;-77
2024/01/13 00:43:22;;;;;;;46.57;27.03;;;-2.30;99.90;;;;;;5056161;28;20855;-77
2024/01/13 00:49:03;;;;;;;42.80;22.80;;;-2.30;99.90;;;;;;5057500;28;20535;-78
2024/01/13 00:51:51;;;;;;;47.37;27.33;;;-2.20;99.90;;;;;;5057250;28;20462;-79
2024/01/13 00:54:31;;;;;;;43.60;25.23;;;-2.10;99.90;;;;;;5056266;28;20557;-77
2024/01/13 00:57:21;;;;;;;42.97;24.20;;;-2.40;99.90;;;;;;5055874;28;20575;-79
2024/01/13 01:00:08;;;;;;;48.67;23.77;;;-2.40;99.90;;;;;;5055999;28;20463;-77
2024/01/13 01:03:43;;;;;;;41.17;22.27;;;-2.40;99.90;;;;;;5057439;28;20481;-77
2024/01/13 01:06:20;;;;;;;44.67;23.40;;;-2.50;99.90;;;;;;5057258;28;20487;-79
2024/01/13 01:09:22;;;;;;;;;;;;;;;;;;;;;
2024/01/13 01:12:12;;;;;;;36.70;21.27;;;-2.40;99.90;;;;;;5055978;28;20489;-78
2024/01/13 01:15:10;;;;;;;40.93;23.90;;;-2.30;99.90;;;;;;5058294;28;20457;-78
2024/01/13 01:18:02;;;;;;;39.87;20.73;;;-2.30;99.90;;;;;;5058318;28;20457;-77
2024/01/13 01:20:44;;;;;;;37.80;21.77;;;-2.40;99.90;;;;;;5057157;28;20480;-78
2024/01/13 01:23:42;;;;;;;43.20;22.03;;;-2.50;99.90;;;;;;5039827;28;20478;-77
2024/01/13 01:26:23;;;;;;;40.43;21.47;;;-2.50;99.90;;;;;;5041537;28;20454;-76
2024/01/13 01:29:08;;;;;;;43.70;24.23;;;-2.40;99.90;;;;;;5040216;28;20450;-77
2024/01/13 01:32:09;;;;;;;41.10;23.33;;;-2.30;99.90;;;;;;5040832;28;20481;-77
2024/01/13 01:35:01;;;;;;;49.20;26.07;;;-2.20;99.90;;;;;;5041199;28;20449;-78
2024/01/13 01:37:38;;;;;;;41.90;25.17;;;-2.20;99.90;;;;;;5040206;28;20453;-77
2024/01/13 01:40:14;;;;;;;42.87;24.53;;;-2.20;99.90;;;;;;5037197;28;20478;-77
2024/01/13 01:42:47;;;;;;;42.37;24.60;;;-2.20;99.90;;;;;;5037965;28;20493;-79
2024/01/13 01:45:23;;;;;;;43.03;24.37;;;-2.40;99.90;;;;;;5034972;28;20450;-77
2024/01/13 01:48:14;;;;;;;37.37;23.67;;;-2.40;99.90;;;;;;5034581;28;20873;-78
2024/01/13 01:50:49;;;;;;;43.73;24.60;;;-2.40;99.90;;;;;;5033987;28;20457;-78
2024/01/13 01:53:24;;;;;;;41.37;23.80;;;-2.10;99.90;;;;;;5035342;28;20451;-77
2024/01/13 01:55:53;;;;;;;42.80;23.87;;;-2.30;99.90;;;;;;5036822;28;20448;-76
2024/01/13 01:58:26;;;;;;;46.03;26.17;;;-2.30;99.90;;;;;;5039143;28;20462;-77
2024/01/13 02:01:16;;;;;;;40.63;23.50;;;-2.30;99.90;;;;;;5041991;28;20482;-76
2024/01/13 02:03:56;;;;;;;41.70;23.70;;;-2.20;99.90;;;;;;5039245;28;20478;-77
2024/01/13 02:06:27;;;;;;;42.73;22.70;;;-2.20;99.90;;;;;;5034536;28;20477;-77
2024/01/13 02:09:06;;;;;;;39.33;22.10;;;-2.20;99.90;;;;;;5035542;28;20457;-78
2024/01/13 02:11:37;;;;;;;38.47;22.00;;;-2.20;99.90;;;;;;5036056;28;20494;-78
2024/01/13 02:14:17;;;;;;;38.77;22.67;;;-2.20;99.90;;;;;;5035524;28;20461;-78
2024/01/13 02:16:58;;;;;;;39.00;21.73;;;-2.10;99.90;;;;;;5042772;28;20510;-77
2024/01/13 02:19:46;;;;;;;35.60;20.10;;;-2.20;99.90;;;;;;5047605;28;20427;-77
2024/01/13 02:23:07;;;;;;;38.07;22.20;;;-2.30;99.90;;;;;;5047497;28;20485;-78
2024/01/13 02:26:14;;;;;;;41.73;22.67;;;-2.50;99.90;;;;;;5043446;28;20828;-76
2024/01/13 02:29:08;;;;;;;40.30;20.63;;;-2.70;99.90;;;;;;5050754;28;20450;-78
2024/01/13 02:31:55;;;;;;;33.30;19.27;;;-2.50;99.90;;;;;;5046922;28;20466;-77
2024/01/13 02:35:00;;;;;;;;;;;;;;;;;;;;;
2024/01/13 02:37:45;;;;;;;30.20;20.40;;;-2.40;99.90;;;;;;5036969;28;20520;-77
2024/01/13 02:40:22;;;;;;;37.67;21.87;;;-2.50;99.90;;;;;;5040993;28;20806;-77
2024/01/13 02:43:04;;;;;;;36.70;21.80;;;-2.50;99.90;;;;;;5042084;28;21066;-77
2024/01/13 02:45:51;;;;;;;;;;;;;;;;;;;;;
2024/01/13 02:48:27;;;;;;;37.50;20.90;;;-2.60;99.90;;;;;;5046941;28;20411;-78
2024/01/13 02:51:12;;;;;;;40.87;20.20;;;-2.60;99.90;;;;;;5049601;28;20461;-77
2024/01/13 02:54:05;;;;;;;32.90;19.03;;;-2.50;99.90;;;;;;5049052;28;20963;-79
2024/01/13 02:56:37;;;;;;;38.63;20.67;;;-2.50;99.90;;;;;;5046759;28;20450;-76
2024/01/13 02:59:09;;;;;;;31.77;19.00;;;-2.50;99.90;;;;;;5044164;28;20439;-78
2024/01/13 03:02:00;;;;;;;33.43;19.40;;;-2.40;99.90;;;;;;5041331;28;20498;-78
2024/01/13 03:04:43;;;;;;;34.03;19.47;;;-2.40;99.90;;;;;;5041791;28;20431;-76
2024/01/13 03:07:29;;;;;;;34.00;18.23;;;-2.50;99.90;;;;;;5041453;28;20433;-77
2024/01/13 03:10:08;;;;;;;36.47;20.83;;;-2.50;99.90;;;;;;5041975;28;20446;-78
2024/01/13 03:12:48;;;;;;;37.03;21.17;;;-2.50;99.90;;;;;;5041618;28;20604;-76
2024/01/13 03:15:27;;;;;;;34.70;20.67;;;-2.50;99.90;;;;;;5043929;28;20450;-77
2024/01/13 03:18:08;;;;;;;36.87;21.07;;;-2.50;99.90;;;;;;5049212;28;20457;-77
2024/01/13 03:20:44;;;;;;;37.67;21.17;;;-2.50;99.90;;;;;;5050716;28;20442;-76
2024/01/13 03:23:23;;;;;;;40.80;21.20;;;-2.50;99.90;;;;;;5051504;28;20477;-77
2024/01/13 03:25:58;;;;;;;32.83;19.43;;;-2.60;99.90;;;;;;5045539;28;20435;-77
2024/01/13 03:28:33;;;;;;;37.20;19.30;;;-2.70;99.90;;;;;;5047159;28;20434;-77
2024/01/13 03:31:11;;;;;;;35.30;19.60;;;-2.70;99.90;;;;;;5048369;28;20501;-78
2024/01/13 03:33:58;;;;;;;31.53;18.90;;;-2.60;99.90;;;;;;5042117;28;20447;-77
2024/01/13 03:36:35;;;;;;;36.10;21.03;;;-2.60;99.90;;;;;;5040480;28;20442;-79
2024/01/13 03:39:06;;;;;;;33.00;20.33;;;-2.60;99.90;;;;;;5044151;28;20446;-78
2024/01/13 03:41:42;;;;;;;38.10;20.23;;;-2.50;99.90;;;;;;5043163;28;20539;-79
2024/01/13 03:44:22;;;;;;;40.30;21.00;;;-2.50;99.90;;;;;;5042166;28;20908;-77
2024/01/13 03:46:59;;;;;;;38.57;20.37;;;-2.40;99.90;;;;;;5040604;28;20541;-77
2024/01/13 03:49:31;;;;;;;34.90;19.20;;;-2.70;99.90;;;;;;5038705;28;20508;-77
2024/01/13 03:52:07;;;;;;;42.20;19.73;;;-2.90;99.90;;;;;;5037612;28;20501;-77
2024/01/13 03:54:38;;;;;;;39.03;20.00;;;-2.70;99.90;;;;;;5037545;28;20462;-77
2024/01/13 03:57:17;;;;;;;32.47;20.90;;;-2.40;99.90;;;;;;5037798;28;20434;-77
2024/01/13 03:59:50;;;;;;;40.30;21.40;;;-2.60;99.90;;;;;;5038222;28;20529;-77
2024/01/13 04:02:25;;;;;;;41.77;21.63;;;-2.60;99.90;;;;;;5039512;28;20471;-77
2024/01/13 04:05:18;;;;;;;37.83;20.73;;;-2.70;99.90;;;;;;5041994;28;20446;-78
2024/01/13 04:08:06;;;;;;;36.00;20.77;;;-2.60;99.90;;;;;;5058616;28;20445;-77
2024/01/13 04:10:46;;;;;;;36.17;21.83;;;-2.70;99.90;;;;;;5057985;28;20568;-78
2024/01/13 04:13:40;;;;;;;38.83;21.23;;;-2.70;99.90;;;;;;5058371;28;20477;-77
2024/01/13 04:16:47;;;;;;;41.27;21.63;;;-2.60;99.90;;;;;;5057784;28;20454;-76
2024/01/13 04:19:30;;;;;;;40.17;21.80;;;-2.60;99.90;;;;;;5057583;28;20508;-79
2024/01/13 04:22:05;;;;;;;39.13;20.87;;;-2.40;99.90;;;;;;5056842;28;20560;-78
2024/01/13 04:24:45;;;;;;;41.17;22.23;;;-2.50;99.90;;;;;;5054273;28;20487;-77
2024/01/13 04:27:13;;;;;;;37.00;21.53;;;-2.40;99.90;;;;;;5056094;28;20488;-78
2024/01/13 04:30:03;;;;;;;42.03;20.67;;;-2.20;99.90;;;;;;5057869;28;20454;-77
2024/01/13 04:32:42;;;;;;;36.17;21.37;;;-2.40;99.90;;;;;;5052845;28;20450;-76
2024/01/13 04:35:17;;;;;;;38.30;19.63;;;-2.30;99.90;;;;;;5037068;28;20451;-79
2024/01/13 04:37:50;;;;;;;41.23;21.40;;;-2.40;99.90;;;;;;5036879;28;20481;-77
2024/01/13 04:40:30;;;;;;;40.80;20.43;;;-2.40;99.90;;;;;;5036838;28;20449;-77
2024/01/13 04:43:19;;;;;;;41.57;22.27;;;-2.40;99.90;;;;;;5036380;28;20513;-77
2024/01/13 04:46:10;;;;;;;37.30;20.70;;;-2.40;99.90;;;;;;5035770;28;20418;-78
2024/01/13 04:48:50;;;;;;;36.30;21.40;;;-2.80;99.90;;;;;;5036000;28;20955;-77
2024/01/13 04:51:36;;;;;;;37.10;19.90;;;-2.50;99.90;;;;;;5035661;28;20450;-77
2024/01/13 04:54:21;;;;;;;42.00;21.17;;;-2.50;99.90;;;;;;5036215;28;20446;-80
2024/01/13 04:56:54;;;;;;;39.50;21.50;;;-2.60;99.90;;;;;;5035594;28;20508;-77
2024/01/13 04:59:29;;;;;;;37.50;21.23;;;-2.80;99.90;;;;;;5036056;28;20435;-78
2024/01/13 05:02:07;;;;;;;37.27;23.10;;;-2.20;99.90;;;;;;5035538;28;20529;-77
2024/01/13 05:04:38;;;;;;;40.57;22.87;;;-2.40;99.90;;;;;;5035711;28;20563;-77
2024/01/13 05:07:15;;;;;;;39.43;22.50;;;-2.20;99.90;;;;;;5035350;28;20453;-79
2024/01/13 05:09:50;;;;;;;48.07;24.10;;;-2.40;99.90;;;;;;5036605;28;20464;-77
2024/01/13 05:12:24;;;;;;;44.20;22.93;;;-2.50;99.90;;;;;;5036078;28;20489;-80
2024/01/13 05:15:04;;;;;;;44.37;23.30;;;-2.60;99.90;;;;;;5036122;28;20482;-78
2024/01/13 05:17:42;;;;;;;41.10;20.57;;;-2.50;99.90;;;;;;5035088;28;20462;-77
2024/01/13 05:20:34;;;;;;;44.70;22.73;;;-2.70;99.90;;;;;;5035821;28;20478;-78
2024/01/13 05:23:12;;;;;;;44.73;23.53;;;-2.70;99.90;;;;;;5035742;28;20474;-78
2024/01/13 05:26:01;;;;;;;41.00;22.00;;;-2.70;99.90;;;;;;5035514;28;20454;-77
2024/01/13 05:28:46;;;;;;;46.47;24.53;;;-2.70;99.90;;;;;;5035627;28;20454;-77
2024/01/13 05:31:26;;;;;;;46.10;23.80;;;-2.60;99.90;;;;;;5035093;28;20460;-79
2024/01/13 05:34:09;;;;;;;48.27;22.80;;;-2.50;99.90;;;;;;5034859;28;20442;-77
2024/01/13 05:36:44;;;;;;;48.10;23.93;;;-2.50;99.90;;;;;;5034138;28;20453;-79
2024/01/13 05:39:21;;;;;;;47.70;23.10;;;-2.70;99.90;;;;;;5035002;28;20469;-77
2024/01/13 05:42:00;;;;;;;41.57;21.73;;;-2.60;99.90;;;;;;5034642;28;20472;-80
2024/01/13 05:44:35;;;;;;;40.70;21.10;;;-2.60;99.90;;;;;;5035483;28;20485;-79
2024/01/13 05:47:27;;;;;;;47.50;24.43;;;-2.50;99.90;;;;;;5036258;28;20461;-79
2024/01/13 05:50:00;;;;;;;36.03;20.60;;;-2.60;99.90;;;;;;5035480;28;20408;-77
2024/01/13 05:52:33;;;;;;;44.13;21.80;;;-2.60;99.90;;;;;;5034615;28;20546;-77
2024/01/13 05:55:04;;;;;;;48.00;23.83;;;-2.60;99.90;;;;;;5037055;28;20502;-77
2024/01/13 05:57:43;;;;;;;38.67;21.67;;;-2.50;99.90;;;;;;5034895;28;20474;-79
2024/01/13 06:00:19;;;;;;;44.80;21.53;;;-2.50;99.90;;;;;;5034002;28;20477;-78
2024/01/13 06:02:57;;;;;;;48.63;22.33;;;-2.60;99.90;;;;;;5034324;28;20478;-78
2024/01/13 06:05:39;;;;;;;44.47;22.97;;;-2.60;99.90;;;;;;5042483;28;20453;-79
2024/01/13 06:08:22;;;;;;;45.07;23.10;;;-2.30;99.90;;;;;;5055488;28;20509;-79
2024/01/13 06:10:53;;;;;;;43.23;23.70;;;-2.60;99.90;;;;;;5056374;28;20596;-78
2024/01/13 06:13:25;;;;;;;50.70;23.30;;;-2.50;99.90;;;;;;5055006;28;20476;-78
2024/01/13 06:16:03;;;;;;;42.27;23.27;;;-2.50;99.90;;;;;;5053907;28;20446;-77
2024/01/13 06:18:44;;;;;;;46.00;23.40;;;-2.50;99.90;;;;;;5054635;28;20445;-80
2024/01/13 06:21:19;;;;;;;44.27;20.90;;;-2.50;99.90;;;;;;5054631;28;20523;-79
2024/01/13 06:24:01;;;;;;;46.30;24.00;;;-2.80;99.90;;;;;;5054714;28;20473;-78
2024/01/13 06:26:41;;;;;;;41.77;21.20;;;-2.60;99.90;;;;;;5054674;28;20453;-78
2024/01/13 06:29:33;;;;;;;44.97;23.43;;;-2.60;99.90;;;;;;5053530;28;20421;-77
2024/01/13 06:32:31;;;;;;;;;;;;;;;;;;;;;
2024/01/13 06:35:08;;;;;;;44.93;21.60;;;-2.40;99.90;;;;;;5053167;28;20441;-77
2024/01/13 06:37:45;;;;;;;45.80;23.90;;;-2.40;99.90;;;;;;5053354;28;20453;-80
2024/01/13 06:40:19;;;;;;;53.47;25.17;;;-2.70;99.90;;;;;;5053823;28;20483;-78
2024/01/13 06:43:10;;;;;;;52.27;27.87;;;-2.60;99.90;;;;;;5053558;28;20515;-78
2024/01/13 06:45:56;;;;;;;52.07;25.43;;;-2.50;99.90;;;;;;5053282;28;20477;-78
2024/01/13 06:48:45;;;;;;;58.33;25.60;;;-2.50;99.90;;;;;;5053051;28;20450;-79
2024/01/13 06:51:26;;;;;;;49.30;24.00;;;-2.50;99.90;;;;;;5055009;28;20460;-79
2024/01/13 06:54:04;;;;;;;47.70;24.30;;;-2.50;99.90;;;;;;5052266;28;20456;-77
2024/01/13 06:56:41;;;;;;;53.00;25.10;;;-2.40;99.90;;;;;;5051815;28;20449;-78
2024/01/13 06:59:18;;;;;;;46.03;23.77;;;-2.40;99.90;;;;;;5052166;28;20532;-77
2024/01/13 07:02:00;;;;;;;51.43;26.30;;;-2.50;99.90;;;;;;5052513;28;20462;-79
2024/01/13 07:04:35;;;;;;;53.07;25.70;;;-2.70;99.90;;;;;;5052366;28;20477;-79
2024/01/13 07:07:20;;;;;;;50.43;25.90;;;-2.50;99.90;;;;;;5052358;28;20498;-78
2024/01/13 07:10:09;;;;;;;48.70;24.97;;;-2.80;99.90;;;;;;5057152;28;20483;-77
2024/01/13 07:12:43;;;;;;;52.40;26.70;;;-2.60;99.90;;;;;;5057089;28;20480;-79
2024/01/13 07:15:31;;;;;;;51.87;25.67;;;-2.60;99.90;;;;;;5056230;28;20436;-80
2024/01/13 07:18:04;;;;;;;53.40;25.07;;;-2.50;99.90;;;;;;5056725;28;20476;-82
2024/01/13 07:20:45;;;;;;;54.03;28.00;;;-2.80;99.90;;;;;;5059114;28;20454;-80
2024/01/13 07:23:28;;;;;;;48.10;25.93;;;-2.50;99.90;;;;;;5059006;28;20497;-78
2024/01/13 07:26:06;;;;;;;49.87;26.30;;;-2.50;99.90;;;;;;5059430;28;20949;-77
2024/01/13 07:28:43;;;;;;;55.53;28.13;;;-2.50;99.90;;;;;;5059424;28;20515;-78
2024/01/13 07:31:20;;;;;;;63.27;30.30;;;-2.40;99.90;;;;;;5055992;28;20454;-78
2024/01/13 07:33:52;;;;;;;60.80;27.90;;;-2.40;99.90;;;;;;5057456;28;20445;-78
2024/01/13 07:36:39;;;;;;;54.77;27.63;;;-2.40;99.90;;;;;;5057061;28;20811;-79
2024/01/13 07:39:19;;;;;;;63.33;27.87;;;-2.30;99.90;;;;;;5056772;28;20461;-78
2024/01/13 07:44:51;;;;;;;55.00;26.63;;;-2.00;99.90;;;;;;5055427;28;20466;-78
2024/01/13 07:47:34;;;;;;;44.33;23.90;;;-2.00;99.90;;;;;;5056647;28;20453;-77
2024/01/13 07:50:05;;;;;;;45.47;23.87;;;-2.00;99.90;;;;;;5062129;28;20486;-79
2024/01/13 07:52:36;;;;;;;41.30;22.33;;;-2.10;99.90;;;;;;5064870;28;20480;-77
2024/01/13 07:55:13;;;;;;;36.67;19.70;;;-2.10;99.90;;;;;;5063925;28;20442;-77
2024/01/13 07:57:50;;;;;;;47.80;24.30;;;-1.90;99.90;;;;;;5065624;28;20468;-78
2024/01/13 08:00:27;;;;;;;47.23;22.27;;;-2.40;99.90;;;;;;5068064;28;20444;-79
2024/01/13 08:03:04;;;;;;;49.00;24.23;;;-2.10;99.90;;;;;;5064882;28;20470;-78
2024/01/13 08:05:39;;;;;;;47.40;24.70;;;-2.10;99.90;;;;;;5065289;28;20504;-77
2024/01/13 08:08:19;;;;;;;41.83;23.13;;;-2.30;99.90;;;;;;5067334;28;20537;-77
2024/01/13 08:11:06;;;;;;;;;;;;;;;;;;;;;
2024/01/13 08:13:44;;;;;;;41.87;23.67;;;-2.00;99.90;;;;;;5067259;28;20481;-77
2024/01/13 08:16:18;;;;;;;44.60;22.10;;;-2.00;99.90;;;;;;5068438;28;20459;-77
2024/01/13 08:18:57;;;;;;;38.23;20.63;;;-2.00;99.90;;;;;;5069509;28;20440;-79
2024/01/13 08:21:36;;;;;;;43.80;23.03;;;-2.10;99.90;;;;;;5068887;28;20507;-78
2024/01/13 08:24:31;;;;;;;44.27;21.43;;;-2.00;99.90;;;;;;5069408;28;20483;-79
2024/01/13 08:27:08;;;;;;;35.00;20.70;;;-2.00;99.90;;;;;;5069492;28;20458;-78
2024/01/13 08:29:51;;;;;;;44.57;22.33;;;-2.10;99.90;;;;;;5069694;28;20511;-76
2024/01/13 08:32:25;;;;;;;36.67;20.43;;;-2.10;99.90;;;;;;5069093;28;20478;-78
2024/01/13 08:35:07;;;;;;;39.83;20.97;;;-2.00;99.90;;;;;;5067945;28;20456;-77
2024/01/13 08:37:57;;;;;;;41.40;21.40;;;-1.90;99.90;;;;;;5068307;28;20961;-78
2024/01/13 08:40:28;;;;;;;36.20;20.57;;;-2.30;99.90;;;;;;5067906;28;20458;-77
2024/01/13 08:43:03;;;;;;;31.50;18.70;;;-2.10;99.90;;;;;;5063131;28;20504;-78
2024/01/13 08:45:33;;;;;;;36.77;18.83;;;-2.10;99.90;;;;;;5062405;28;20495;-76
2024/01/13 08:48:04;;;;;;;32.30;17.87;;;-2.40;99.90;;;;;;5060775;28;20535;-77
2024/01/13 08:50:33;;;;;;;34.63;18.90;;;-2.10;99.90;;;;;;5060813;28;20480;-78
2024/01/13 08:53:11;;;;;;;27.03;15.37;;;-2.00;99.90;;;;;;5060232;28;20470;-79
2024/01/13 08:55:41;;;;;;;34.43;17.13;;;-2.00;99.90;;;;;;5060651;28;21009;-77
2024/01/13 08:58:09;;;;;;;32.83;17.37;;;-1.80;99.90;;;;;;5062605;28;20469;-79
2024/01/13 09:00:38;;;;;;;29.93;17.40;;;-2.00;99.90;;;;;;5061810;28;20445;-79
2024/01/13 09:03:06;;;;;;;27.00;14.83;;;-2.00;99.90;;;;;;5061668;28;20826;-78
2024/01/13 09:05:35;;;;;;;26.40;14.60;;;-2.10;99.90;;;;;;5052626;28;20891;-78
2024/01/13 09:08:11;;;;;;;26.70;15.50;;;-1.90;99.90;;;;;;5041580;28;20451;-78
2024/01/13 09:10:39;;;;;;;34.17;18.03;;;-1.90;99.90;;;;;;5040357;28;20454;-79
2024/01/13 09:13:08;;;;;;;28.10;16.37;;;-1.90;99.90;;;;;;5039526;28;20497;-78
2024/01/13 09:15:38;;;;;;;26.17;15.10;;;-1.90;99.90;;;;;;5039997;28;20450;-79
2024/01/13 09:18:08;;;;;;;25.30;15.20;;;-1.90;99.90;;;;;;5043331;28;20443;-80
2024/01/13 09:20:35;;;;;;;17.70;12.20;;;-1.90;99.90;;;;;;5038943;28;20461;-78
2024/01/13 09:23:07;;;;;;;20.60;13.10;;;-1.80;99.90;;;;;;5036226;28;20626;-77
2024/01/13 09:25:35;;;;;;;20.90;12.63;;;-1.70;99.90;;;;;;5035468;28;20474;-78
2024/01/13 09:28:05;;;;;;;12.80;7.80;;;-1.60;99.90;;;;;;5034569;28;20446;-77
2024/01/13 09:30:32;;;;;;;12.50;9.03;;;-1.70;99.90;;;;;;5036600;28;20446;-79
2024/01/13 09:33:01;;;;;;;11.70;8.53;;;-1.70;99.90;;;;;;5035894;28;20537;-80
2024/01/13 09:35:31;;;;;;;11.50;9.27;;;-1.70;99.90;;;;;;5038840;28;20995;-80
2024/01/13 09:38:01;;;;;;;11.27;8.27;;;-1.70;99.90;;;;;;5040196;28;20542;-80
2024/01/13 09:40:30;;;;;;;11.63;8.73;;;-1.70;99.90;;;;;;5039476;28;20486;-78
2024/01/13 09:43:14;;;;;;;15.30;9.80;;;-1.70;99.90;;;;;;5041844;28;20462;-79
2024/01/13 09:45:48;;;;;;;14.50;9.80;;;-1.80;99.90;;;;;;5044014;28;20493;-80
2024/01/13 09:48:21;;;;;;;15.80;9.97;;;-1.90;99.90;;;;;;5044498;28;20442;-79
2024/01/13 09:50:52;;;;;;;14.80;10.47;;;-2.30;99.90;;;;;;5044963;28;20437;-79
2024/01/13 09:53:28;;;;;;;18.70;12.07;;;-1.80;99.90;;;;;;5043704;28;20534;-79
2024/01/13 09:56:05;;;;;;;15.70;11.00;;;-1.80;99.90;;;;;;5043767;28;20446;-80
2024/01/13 09:58:33;;;;;;;18.10;11.10;;;-1.70;99.90;;;;;;5043243;28;20474;-78
2024/01/13 10:01:03;;;;;;;14.33;10.20;;;-1.60;99.90;;;;;;5042050;28;20446;-80
2024/01/13 10:03:35;;;;;;;12.87;9.87;;;-1.60;99.90;;;;;;5041414;28;20832;-79
2024/01/13 10:06:09;;;;;;;12.87;10.80;;;-1.60;99.90;;;;;;5039520;28;20484;-77
2024/01/13 10:08:37;;;;;;;14.07;9.77;;;-1.60;99.90;;;;;;5039561;28;20809;-79
2024/01/13 10:11:05;;;;;;;16.13;10.33;;;-1.50;99.90;;;;;;5040735;28;20442;-81
2024/01/13 10:13:42;;;;;;;12.77;10.17;;;-1.60;99.90;;;;;;5039804;28;20484;-78
2024/01/13 10:16:13;;;;;;;12.60;9.23;;;-1.60;99.90;;;;;;5038677;28;20451;-79
2024/01/13 10:18:42;;;;;;;14.13;10.27;;;-1.70;99.90;;;;;;5038019;28;20446;-79
2024/01/13 10:21:17;;;;;;;16.40;10.40;;;-1.90;99.90;;;;;;5036815;28;20446;-78
2024/01/13 10:23:46;;;;;;;15.10;11.00;;;-1.60;99.90;;;;;;5035683;28;20450;-78
2024/01/13 10:26:14;;;;;;;14.93;11.17;;;-1.90;99.90;;;;;;5034128;28;20557;-80
2024/01/13 10:28:43;;;;;;;15.70;11.50;;;-1.70;99.90;;;;;;5033920;28;20887;-78
2024/01/13 10:31:11;;;;;;;16.17;11.33;;;-1.80;99.90;;;;;;5033907;28;20438;-77
2024/01/13 10:33:45;;;;;;;18.80;12.83;;;-1.80;99.90;;;;;;5034909;28;20474;-79
2024/01/13 10:36:13;;;;;;;16.43;11.70;;;-1.70;99.90;;;;;;5036292;28;20457;-81
2024/01/13 10:38:55;;;;;;;15.87;11.20;;;-1.60;99.90;;;;;;5036642;28;20892;-78
2024/01/13 10:41:37;;;;;;;18.83;12.40;;;-1.60;99.90;;;;;;5035758;28;20497;-78
2024/01/13 10:44:18;;;;;;;17.33;12.37;;;-1.60;99.90;;;;;;5039027;28;20484;-78
2024/01/13 10:46:50;;;;;;;16.27;11.40;;;-1.70;99.90;;;;;;5039279;28;20442;-78
2024/01/13 10:49:34;;;;;;;17.63;11.07;;;-1.70;99.90;;;;;;5042094;28;20430;-78
2024/01/13 10:52:13;;;;;;;18.57;12.57;;;-1.60;99.90;;;;;;5041508;28;20465;-78
2024/01/13 10:54:56;;;;;;;17.70;12.30;;;-1.90;99.90;;;;;;5040268;28;20589;-79
2024/01/13 10:57:28;;;;;;;27.27;16.73;;;-1.90;99.90;;;;;;5045701;28;20519;-77
2024/01/13 11:00:08;;;;;;;19.10;12.63;;;-1.50;99.90;;;;;;5051063;28;20881;-78
2024/01/13 11:02:43;;;;;;;20.43;13.90;;;-1.50;99.90;;;;;;5049384;28;20472;-80
2024/01/13 11:05:22;;;;;;;19.63;13.90;;;-1.40;99.90;;;;;;5050363;28;20464;-79
2024/01/13 11:08:02;;;;;;;18.70;11.90;;;-1.30;99.90;;;;;;5063728;28;20449;-77
2024/01/13 11:10:44;;;;;;;21.83;14.30;;;-1.30;99.90;;;;;;5064429;28;20453;-79
2024/01/13 11:13:25;;;;;;;15.17;11.73;;;-1.30;99.90;;;;;;5065130;28;20469;-78
2024/01/13 11:16:07;;;;;;;18.10;11.87;;;-1.40;99.90;;;;;;5059128;28;20473;-79
2024/01/13 11:18:48;;;;;;;14.90;10.93;;;-1.50;99.90;;;;;;5058442;28;20507;-78
2024/01/13 11:21:34;;;;;;;16.53;12.47;;;-1.50;99.90;;;;;;5058406;28;20812;-78
2024/01/13 11:24:19;;;;;;;13.57;11.57;;;-1.50;99.90;;;;;;5058356;28;20455;-78
2024/01/13 11:26:53;;;;;;;15.20;11.17;;;-1.60;99.90;;;;;;5058029;28;20488;-78
2024/01/13 11:29:31;;;;;;;15.63;10.90;;;-1.60;99.90;;;;;;5058734;28;20418;-80
2024/01/13 11:31:59;;;;;;;19.80;12.70;;;-1.60;99.90;;;;;;5063185;28;20603;-79
2024/01/13 11:34:36;;;;;;;19.10;13.23;;;-1.50;99.90;;;;;;5043655;28;20470;-79
2024/01/13 11:37:10;;;;;;;17.87;12.80;;;-1.50;99.90;;;;;;5062564;28;20453;-79
2024/01/13 11:39:43;;;;;;;17.20;12.73;;;-1.50;99.90;;;;;;5065322;28;20448;-79
2024/01/13 11:42:32;;;;;;;17.43;11.17;;;-1.40;99.90;;;;;;5051927;28;20478;-77
2024/01/13 11:45:05;;;;;;;15.00;10.80;;;-1.50;99.90;;;;;;5057219;28;20616;-79
2024/01/13 11:47:36;;;;;;;19.63;14.00;;;-1.50;99.90;;;;;;5052798;28;20470;-76
2024/01/13 11:50:39;;;;;;;17.43;13.00;;;-1.80;99.90;;;;;;5045828;28;20437;-78
2024/01/13 11:53:39;;;;;;;16.23;11.90;;;-1.40;99.90;;;;;;5045305;28;20541;-78
2024/01/13 11:56:14;;;;;;;19.50;13.27;;;-1.30;99.90;;;;;;5055730;28;20452;-79
2024/01/13 11:58:49;;;;;;;19.57;12.80;;;-1.20;99.90;;;;;;5056091;28;20511;-78
2024/01/13 12:01:18;;;;;;;15.97;12.27;;;-1.30;99.90;;;;;;5051715;28;20452;-78
2024/01/13 12:03:54;;;;;;;20.40;13.63;;;-1.20;99.90;;;;;;5046770;28;20461;-78
2024/01/13 12:06:25;;;;;;;20.43;13.33;;;-1.20;99.90;;;;;;5055014;28;20473;-79
2024/01/13 12:09:03;;;;;;;18.00;13.10;;;-1.20;99.90;;;;;;5053359;28;20458;-77
2024/01/13 12:11:37;;;;;;;14.37;11.67;;;-1.10;99.90;;;;;;5044053;28;20462;-78
2024/01/13 12:14:14;;;;;;;15.07;11.50;;;-1.10;99.90;;;;;;5053976;28;20421;-79
2024/01/13 12:16:48;;;;;;;21.10;14.03;;;-1.00;99.90;;;;;;5054406;28;20930;-81
2024/01/13 12:19:19;;;;;;;15.20;10.93;;;-0.90;99.90;;;;;;5049243;28;20447;-79
2024/01/13 12:21:49;;;;;;;16.43;11.83;;;-1.00;99.90;;;;;;5048228;28;20470;-78
2024/01/13 12:24:28;;;;;;;14.07;11.90;;;-0.90;99.90;;;;;;5042956;28;20989;-79
2024/01/13 12:27:02;;;;;;;16.03;11.10;;;-1.20;99.90;;;;;;5054441;28;20472;-80
2024/01/13 12:29:33;;;;;;;20.00;14.43;;;-0.80;99.90;;;;;;5056109;28;20448;-76
2024/01/13 12:32:23;;;;;;;19.40;11.87;;;-0.80;99.90;;;;;;5054226;28;20458;-80
2024/01/13 12:34:50;;;;;;;16.30;11.73;;;-0.70;99.90;;;;;;5048832;28;20513;-80
2024/01/13 12:37:19;;;;;;;14.87;10.43;;;-0.90;99.90;;;;;;5054843;28;20440;-79
2024/01/13 12:40:02;;;;;;;17.13;11.53;;;-0.60;99.90;;;;;;5058748;28;20446;-79
2024/01/13 12:42:37;;;;;;;15.63;11.30;;;-0.70;99.90;;;;;;5056615;28;20466;-80
2024/01/13 12:45:08;;;;;;;16.20;11.90;;;-0.70;99.90;;;;;;5054581;28;20469;-78
2024/01/13 12:47:38;;;;;;;17.37;12.00;;;-0.90;99.90;;;;;;5049781;28;20449;-79
2024/01/13 12:50:14;;;;;;;15.47;11.57;;;-0.70;99.90;;;;;;5054680;28;20438;-80
2024/01/13 12:52:41;;;;;;;16.63;11.30;;;-0.80;99.90;;;;;;5050445;28;20472;-79
2024/01/13 12:55:11;;;;;;;17.23;13.00;;;-0.70;99.90;;;;;;5054594;28;21004;-79
2024/01/13 12:57:43;;;;;;;16.20;12.03;;;-0.90;99.90;;;;;;5053872;28;20442;-79
2024/01/13 13:00:18;;;;;;;18.10;12.63;;;-0.80;99.90;;;;;;5044760;28;20877;-78
2024/01/13 13:02:51;;;;;;;13.80;11.67;;;-0.60;99.90;;;;;;5058599;28;20504;-79
2024/01/13 13:05:24;;;;;;;16.40;12.07;;;-0.60;99.90;;;;;;5058214;28;20466;-80
2024/01/13 13:07:55;;;;;;;16.00;12.53;;;-0.40;99.90;;;;;;5058244;28;20450;-80
2024/01/13 13:10:25;;;;;;;17.93;11.93;;;-0.60;99.90;;;;;;5059948;28;20504;-79
2024/01/13 13:13:02;;;;;;;16.17;13.37;;;-0.60;99.90;;;;;;5054843;28;20481;-77
2024/01/13 13:15:33;;;;;;;17.80;13.50;;;-0.50;99.90;;;;;;5052885;28;20450;-81
2024/01/13 13:18:10;;;;;;;16.30;13.23;;;-0.50;99.90;;;;;;5049985;28;20446;-78
2024/01/13 13:20:40;;;;;;;14.43;12.23;;;-0.50;99.90;;;;;;5051176;28;20504;-79
2024/01/13 13:23:08;;;;;;;20.00;14.17;;;-0.60;99.90;;;;;;5050748;28;20998;-77
2024/01/13 13:25:40;;;;;;;16.17;11.73;;;-0.60;99.90;;;;;;5054002;28;20493;-78
2024/01/13 13:28:08;;;;;;;16.40;11.37;;;-0.50;99.90;;;;;;5054290;28;20446;-79
2024/01/13 13:30:39;;;;;;;15.97;12.70;;;-0.60;99.90;;;;;;5045844;28;20935;-79
2024/01/13 13:33:07;;;;;;;16.77;12.90;;;-0.70;99.90;;;;;;5048199;28;20463;-80
2024/01/13 13:35:38;;;;;;;19.07;13.43;;;-0.70;99.90;;;;;;5052891;28;20458;-80
2024/01/13 13:38:09;;;;;;;16.37;12.60;;;-0.40;99.90;;;;;;5055342;28;20480;-79
2024/01/13 13:40:45;;;;;;;16.77;12.70;;;-0.70;99.90;;;;;;5054455;28;20458;-81
2024/01/13 13:43:12;;;;;;;15.77;12.83;;;-0.60;99.90;;;;;;5053025;28;20497;-82